Time;durP1;ratioP1;P1;durP2;ratioP2;P2;SDS_P1;SDS_P2;PMS_P1;PMS_P2;Temp;Humidity;BMP_temperature;BMP_pressure;BME280_temperature;BME280_humidity;BME280_pressure;Samples;Min_cycle;Max_cycle;Signal;HPM_P1;HPM_P2
2022/10/07 00:01:33;;;;;;;19.65;2.97;;;10.50;99.90;;;;;;4858048;29;20378;-68
2022/10/07 00:03:59;;;;;;;15.27;2.67;;;10.50;99.90;;;;;;4857078;29;20136;-69
2022/10/07 00:06:25;;;;;;;15.73;2.85;;;10.50;99.90;;;;;;4860375;29;20060;-67
2022/10/07 00:08:52;;;;;;;21.42;3.45;;;10.50;99.90;;;;;;4855816;29;20054;-68
2022/10/07 00:11:24;;;;;;;22.55;2.72;;;10.50;99.90;;;;;;4859362;29;20413;-67
2022/10/07 00:13:58;;;;;;;16.73;2.95;;;10.50;99.90;;;;;;4853638;29;20046;-68
2022/10/07 00:16:29;;;;;;;13.43;3.60;;;10.50;99.90;;;;;;4858822;29;20053;-68
2022/10/07 00:18:58;;;;;;;12.00;3.00;;;10.50;99.90;;;;;;4860097;29;20106;-68
2022/10/07 00:21:29;;;;;;;12.30;2.67;;;10.50;99.90;;;;;;4859284;29;20041;-68
2022/10/07 00:23:55;;;;;;;10.38;2.88;;;10.50;99.90;;;;;;4856415;29;20116;-67
2022/10/07 00:26:25;;;;;;;15.68;2.85;;;10.50;99.90;;;;;;4859917;29;20469;-68
2022/10/07 00:28:51;;;;;;;13.90;2.70;;;10.50;99.90;;;;;;4856507;29;20054;-67
2022/10/07 00:31:22;;;;;;;8.38;2.70;;;10.50;99.90;;;;;;4841743;29;20034;-68
2022/10/07 00:33:48;;;;;;;12.38;2.65;;;10.50;99.90;;;;;;4859673;29;20315;-67
2022/10/07 00:36:18;;;;;;;11.70;2.28;;;10.40;99.90;;;;;;4817820;24;20569;-68
2022/10/07 00:38:48;;;;;;;14.55;3.08;;;10.40;99.90;;;;;;4856903;29;20060;-67
2022/10/07 00:41:20;;;;;;;14.98;3.05;;;10.40;99.90;;;;;;4863669;29;20497;-68
2022/10/07 00:43:46;;;;;;;11.38;2.70;;;10.50;99.90;;;;;;4856716;29;20065;-68
2022/10/07 00:46:28;;;;;;;12.57;2.88;;;10.50;99.90;;;;;;4858645;29;20516;-68
2022/10/07 00:48:55;;;;;;;11.75;3.30;;;10.40;99.90;;;;;;4858816;29;20042;-68
2022/10/07 00:51:21;;;;;;;14.70;3.10;;;10.40;99.90;;;;;;4872444;29;20048;-67
2022/10/07 00:53:49;;;;;;;10.38;2.70;;;10.40;99.90;;;;;;4855154;29;20061;-67
2022/10/07 00:56:16;;;;;;;16.00;3.05;;;10.40;99.90;;;;;;4847186;29;20050;-68
2022/10/07 00:58:43;;;;;;;15.40;2.53;;;10.40;99.90;;;;;;4866311;29;20045;-68
2022/10/07 01:01:10;;;;;;;14.80;2.85;;;10.40;99.90;;;;;;4856421;29;20048;-68
2022/10/07 01:03:36;;;;;;;9.38;2.50;;;10.40;99.90;;;;;;4863901;29;20053;-69
2022/10/07 01:06:04;;;;;;;12.63;2.40;;;10.40;99.90;;;;;;4857190;29;20068;-67
2022/10/07 01:08:30;;;;;;;12.07;2.40;;;10.40;99.90;;;;;;4824398;29;20050;-68
2022/10/07 01:11:14;;;;;;;12.68;2.60;;;10.40;99.90;;;;;;4844912;29;20042;-67
2022/10/07 01:13:53;;;;;;;10.43;2.75;;;10.30;99.90;;;;;;4851256;29;20052;-67
2022/10/07 01:16:20;;;;;;;;;;;10.30;99.90;;;;;;4856834;29;20050;-68
2022/10/07 01:19:12;;;;;;;18.55;3.25;;;10.30;99.90;;;;;;4849741;29;19925;-68
2022/10/07 01:22:02;;;;;;;10.82;2.58;;;10.30;99.90;;;;;;4849288;29;20049;-68
2022/10/07 01:24:41;;;;;;;13.25;3.20;;;10.30;99.90;;;;;;4860497;29;20058;-68
2022/10/07 01:27:07;;;;;;;17.88;3.78;;;10.30;99.90;;;;;;4834545;29;20458;-68
2022/10/07 01:29:39;;;;;;;14.30;2.90;;;10.20;99.90;;;;;;4859795;29;20065;-68
2022/10/07 01:32:23;;;;;;;12.68;3.63;;;10.20;99.90;;;;;;4844647;29;20511;-68
2022/10/07 01:34:50;;;;;;;13.30;3.55;;;10.20;99.90;;;;;;4859424;29;20098;-68
2022/10/07 02:29:10;;;;;;;18.58;4.03;;;9.90;99.90;;;;;;5039114;23;20050;-68
2022/10/07 02:31:39;;;;;;;10.82;2.78;;;9.90;99.90;;;;;;4838328;29;20489;-68
2022/10/07 02:34:07;;;;;;;15.95;3.70;;;9.90;99.90;;;;;;4839303;29;20061;-67
2022/10/07 02:36:45;;;;;;;16.00;3.30;;;9.80;99.90;;;;;;4841390;29;20450;-68
2022/10/07 02:39:11;;;;;;;15.27;3.30;;;9.80;99.90;;;;;;4843045;29;20065;-66
2022/10/07 02:41:57;;;;;;;21.17;4.15;;;9.90;99.90;;;;;;4843279;29;20045;-68
2022/10/07 02:44:52;;;;;;;17.92;3.38;;;9.80;99.90;;;;;;4842939;29;20146;-67
2022/10/07 02:47:27;;;;;;;14.55;3.75;;;9.80;99.90;;;;;;4839448;29;20065;-67
2022/10/07 02:49:56;;;;;;;21.40;3.50;;;9.80;99.90;;;;;;4836051;29;20050;-69
2022/10/07 02:52:22;;;;;;;;;;;9.80;99.90;;;;;;4828316;29;20396;-68
2022/10/07 02:54:56;;;;;;;20.13;3.38;;;9.80;99.90;;;;;;4842057;29;19984;-68
2022/10/07 02:57:23;;;;;;;12.85;3.70;;;9.70;99.90;;;;;;4825601;29;20081;-66
2022/10/07 02:59:51;;;;;;;17.83;4.10;;;9.70;99.90;;;;;;4843149;29;20064;-68
2022/10/07 03:02:26;;;;;;;23.48;4.15;;;9.70;99.90;;;;;;4830537;29;20042;-68
2022/10/07 03:04:52;;;;;;;21.10;4.00;;;9.70;99.90;;;;;;4838809;29;20441;-68
2022/10/07 03:07:18;;;;;;;21.23;3.92;;;9.70;99.90;;;;;;4825941;29;20129;-67
2022/10/07 03:09:44;;;;;;;15.57;3.83;;;9.70;99.90;;;;;;4841172;29;20118;-67
2022/10/07 03:12:10;;;;;;;20.17;4.25;;;9.70;99.90;;;;;;4837198;29;20382;-68
2022/10/07 03:14:36;;;;;;;13.65;3.70;;;9.70;99.90;;;;;;4838399;29;20046;-67
2022/10/07 03:17:01;;;;;;;23.60;4.80;;;9.70;99.90;;;;;;4842025;29;20041;-67
2022/10/07 03:19:27;;;;;;;23.13;4.05;;;9.60;99.90;;;;;;4851762;29;20169;-68
2022/10/07 03:21:53;;;;;;;13.27;2.97;;;9.60;99.90;;;;;;4826640;29;20114;-68
2022/10/07 03:24:18;;;;;;;15.30;3.70;;;9.60;99.90;;;;;;4839570;29;20041;-69
2022/10/07 03:26:44;;;;;;;19.33;3.92;;;9.60;99.90;;;;;;4840647;29;20045;-67
2022/10/07 03:29:10;;;;;;;19.70;3.53;;;9.60;99.90;;;;;;4841974;29;20053;-68
2022/10/07 03:31:36;;;;;;;15.98;3.85;;;9.60;99.90;;;;;;4841108;29;20053;-67
2022/10/07 03:34:02;;;;;;;15.75;4.28;;;9.60;99.90;;;;;;4823961;29;20408;-67
2022/10/07 03:36:28;;;;;;;14.88;3.38;;;9.60;99.90;;;;;;4842757;29;20052;-68
2022/10/07 03:38:54;;;;;;;24.55;4.53;;;9.40;99.90;;;;;;4839871;29;20034;-68
2022/10/07 03:41:23;;;;;;;17.25;3.72;;;9.60;99.90;;;;;;4839175;29;20523;-67
2022/10/07 03:43:50;;;;;;;22.48;4.03;;;9.60;99.90;;;;;;4825066;29;20084;-66
2022/10/07 03:46:19;;;;;;;15.52;3.67;;;9.60;99.90;;;;;;4841055;29;20042;-67
2022/10/07 03:48:45;;;;;;;18.90;4.45;;;9.60;99.90;;;;;;4814225;29;20133;-69
2022/10/07 03:51:10;;;;;;;17.60;3.88;;;9.60;99.90;;;;;;4824192;29;20548;-67
2022/10/07 03:53:37;;;;;;;14.20;3.42;;;9.60;99.90;;;;;;4836747;29;20141;-68
2022/10/07 03:56:03;;;;;;;18.98;4.35;;;9.60;99.90;;;;;;4841030;29;20041;-67
2022/10/07 03:58:29;;;;;;;19.65;4.03;;;9.60;99.90;;;;;;4808935;29;20046;-67
2022/10/07 04:01:06;;;;;;;20.05;4.53;;;9.60;99.90;;;;;;4839942;29;20466;-67
2022/10/07 04:03:31;;;;;;;16.20;4.18;;;9.60;99.90;;;;;;4832677;29;20038;-68
2022/10/07 04:05:58;;;;;;;18.75;4.22;;;9.60;99.90;;;;;;4828795;29;20095;-66
2022/10/07 04:08:26;;;;;;;15.02;4.20;;;9.60;99.90;;;;;;4840697;29;20052;-69
2022/10/07 04:10:52;;;;;;;17.33;4.43;;;9.50;99.90;;;;;;4837875;29;20049;-68
2022/10/07 04:13:18;;;;;;;15.90;4.28;;;9.50;99.90;;;;;;4839373;29;20124;-68
2022/10/07 04:15:44;;;;;;;27.15;4.53;;;9.50;99.90;;;;;;4830331;29;20121;-68
2022/10/07 04:18:10;;;;;;;18.00;3.88;;;9.50;99.90;;;;;;4822756;29;20141;-69
2022/10/07 04:20:37;;;;;;;24.90;4.78;;;9.50;99.90;;;;;;4841793;29;20050;-67
2022/10/07 04:23:03;;;;;;;18.40;3.97;;;9.50;99.90;;;;;;4841175;29;20053;-68
2022/10/07 04:25:35;;;;;;;16.95;3.90;;;9.50;99.90;;;;;;4840908;29;20069;-68
2022/10/07 04:28:06;;;;;;;23.48;4.50;;;9.50;99.90;;;;;;4839760;29;20085;-68
2022/10/07 04:30:36;;;;;;;12.93;4.00;;;9.50;99.90;;;;;;4841364;29;20098;-67
2022/10/07 04:33:03;;;;;;;18.85;4.43;;;9.50;99.90;;;;;;4839725;29;20453;-67
2022/10/07 04:35:29;;;;;;;18.73;3.90;;;9.50;99.90;;;;;;4840957;29;20061;-67
2022/10/07 04:37:55;;;;;;;27.92;4.70;;;9.50;99.90;;;;;;4841783;29;20053;-69
2022/10/07 04:40:21;;;;;;;21.95;4.13;;;9.50;99.90;;;;;;4840781;29;20130;-67
2022/10/07 04:45:32;;;;;;;22.88;4.45;;;9.50;99.90;;;;;;4832150;29;20058;-67
2022/10/07 04:47:59;;;;;;;17.73;3.97;;;9.50;99.90;;;;;;4824676;29;20167;-67
2022/10/07 04:50:25;;;;;;;24.83;4.53;;;9.50;99.90;;;;;;4810391;29;20049;-68
2022/10/07 04:52:51;;;;;;;16.05;3.95;;;9.50;99.90;;;;;;4843671;29;20057;-68
2022/10/07 04:55:16;;;;;;;16.90;4.50;;;9.50;99.90;;;;;;4839815;29;20049;-67
2022/10/07 04:57:42;;;;;;;14.32;4.53;;;9.50;99.90;;;;;;4840885;29;20061;-67
2022/10/07 05:00:08;;;;;;;26.67;5.40;;;9.50;99.90;;;;;;4840054;29;20461;-66
2022/10/07 05:02:35;;;;;;;22.05;5.05;;;9.50;99.90;;;;;;4839313;29;20122;-68
2022/10/07 05:05:00;;;;;;;19.65;5.57;;;9.50;99.90;;;;;;4841045;29;20118;-67
2022/10/07 05:07:26;;;;;;;18.38;4.88;;;9.50;99.90;;;;;;4840377;29;20125;-68
2022/10/07 05:09:52;;;;;;;19.50;4.72;;;9.50;99.90;;;;;;4836084;29;20038;-68
2022/10/07 05:12:18;;;;;;;20.95;4.53;;;9.50;99.90;;;;;;4844326;29;20697;-68
2022/10/07 05:14:44;;;;;;;22.02;4.82;;;9.50;99.90;;;;;;4843176;29;20042;-67
2022/10/07 05:17:11;;;;;;;17.85;4.55;;;9.50;99.90;;;;;;4844152;29;20423;-67
2022/10/07 05:19:36;;;;;;;21.25;4.30;;;9.40;99.90;;;;;;4841372;29;20109;-66
2022/10/07 05:22:02;;;;;;;19.30;4.50;;;9.50;99.90;;;;;;4822036;29;20476;-68
2022/10/07 05:24:28;;;;;;;19.90;4.80;;;9.40;99.90;;;;;;4841679;29;20104;-67
2022/10/07 05:26:54;;;;;;;17.98;5.30;;;9.50;99.90;;;;;;4841245;29;20480;-67
2022/10/07 05:29:20;;;;;;;17.92;4.43;;;9.60;99.90;;;;;;4844911;29;20105;-67
2022/10/07 05:31:48;;;;;;;18.00;5.82;;;9.50;99.90;;;;;;4840663;29;20046;-68
2022/10/07 05:34:14;;;;;;;19.35;5.57;;;9.50;99.90;;;;;;4820779;29;20482;-67
2022/10/07 05:36:41;;;;;;;18.63;4.90;;;9.50;99.90;;;;;;4844457;29;20448;-69
2022/10/07 05:39:07;;;;;;;29.70;5.13;;;9.50;99.90;;;;;;4843164;29;20453;-67
2022/10/07 05:41:33;;;;;;;18.20;5.18;;;9.50;99.90;;;;;;4844368;29;20045;-69
2022/10/07 05:44:00;;;;;;;19.55;5.82;;;9.50;99.90;;;;;;4842050;29;20493;-68
2022/10/07 05:46:26;;;;;;;22.15;5.10;;;9.50;99.90;;;;;;4841588;29;20061;-68
2022/10/07 05:48:52;;;;;;;22.50;4.45;;;9.50;99.90;;;;;;4842306;29;20045;-68
2022/10/07 05:51:23;;;;;;;24.80;4.95;;;9.50;99.90;;;;;;4844603;29;20157;-68
2022/10/07 05:53:53;;;;;;;21.08;5.72;;;9.50;99.90;;;;;;4839208;29;20077;-67
2022/10/07 05:56:21;;;;;;;17.55;4.95;;;9.50;99.90;;;;;;4833709;29;20079;-68
2022/10/07 05:58:48;;;;;;;18.60;4.78;;;9.50;99.90;;;;;;4840700;29;20050;-68
2022/10/07 06:01:16;;;;;;;21.67;5.45;;;9.50;99.90;;;;;;4841950;29;20110;-68
2022/10/07 06:03:47;;;;;;;36.42;6.57;;;9.60;99.90;;;;;;4836991;29;20073;-68
2022/10/07 06:06:12;;;;;;;21.33;4.60;;;9.60;99.90;;;;;;4843892;29;20053;-67
2022/10/07 06:08:38;;;;;;;21.17;4.20;;;9.60;99.90;;;;;;4844049;29;20057;-67
2022/10/07 06:13:53;;;;;;;21.00;5.20;;;10.30;99.90;;;;;;4835522;29;20062;-69
2022/10/07 06:16:19;;;;;;;21.85;5.40;;;9.70;99.90;;;;;;4838719;29;20042;-67
2022/10/07 06:18:45;;;;;;;24.90;5.03;;;9.70;99.90;;;;;;4838257;29;20038;-67
2022/10/07 06:21:11;;;;;;;24.23;5.30;;;9.70;99.90;;;;;;4835631;29;20447;-69
2022/10/07 06:23:37;;;;;;;22.60;4.25;;;9.70;99.90;;;;;;4840100;29;20053;-69
2022/10/07 06:26:08;;;;;;;23.95;5.00;;;9.80;99.90;;;;;;4825439;29;20401;-69
2022/10/07 06:28:39;;;;;;;14.43;4.72;;;9.80;99.90;;;;;;4841819;29;20413;-68
2022/10/07 06:31:16;;;;;;;18.25;4.68;;;9.80;99.90;;;;;;4841725;29;20070;-68
2022/10/07 06:33:42;;;;;;;22.42;5.60;;;9.80;99.90;;;;;;4842229;29;20133;-67
2022/10/07 06:36:12;;;;;;;24.88;5.00;;;9.80;99.90;;;;;;4843843;29;20049;-67
2022/10/07 06:38:46;;;;;;;18.70;5.05;;;9.90;99.90;;;;;;4843197;29;20049;-67
2022/10/07 06:41:13;;;;;;;18.98;4.68;;;9.90;99.90;;;;;;4811375;29;20081;-68
2022/10/07 06:43:38;;;;;;;23.90;5.07;;;10.00;99.90;;;;;;4841984;29;20088;-68
2022/10/07 06:46:05;;;;;;;22.33;5.35;;;10.10;99.90;;;;;;4843110;29;20495;-67
2022/10/07 06:48:33;;;;;;;18.90;5.28;;;10.10;99.90;;;;;;4839698;29;20535;-68
2022/10/07 06:51:04;;;;;;;21.25;5.07;;;11.00;99.90;;;;;;4843502;29;20046;-68
2022/10/07 06:53:31;;;;;;;21.50;5.32;;;10.20;99.90;;;;;;4823834;29;20156;-67
2022/10/07 06:56:04;;;;;;;19.30;5.53;;;10.30;99.90;;;;;;4839620;29;20050;-67
2022/10/07 06:58:30;;;;;;;20.25;4.57;;;10.30;99.90;;;;;;4840301;29;20053;-68
2022/10/07 07:00:58;;;;;;;17.65;4.53;;;10.40;99.90;;;;;;4836621;29;20046;-67
2022/10/07 07:03:25;;;;;;;26.58;6.05;;;10.50;99.90;;;;;;4835636;29;20086;-67
2022/10/07 07:05:51;;;;;;;22.38;6.28;;;10.60;99.90;;;;;;4841452;29;20050;-67
2022/10/07 07:08:18;;;;;;;19.80;5.38;;;10.60;99.90;;;;;;4842392;29;20085;-68
2022/10/07 07:10:44;;;;;;;20.45;5.30;;;10.60;99.90;;;;;;4838593;29;20050;-67
2022/10/07 07:13:11;;;;;;;27.48;5.47;;;10.80;99.90;;;;;;4842711;29;20496;-69
2022/10/07 07:15:38;;;;;;;25.35;5.47;;;10.80;99.90;;;;;;4842414;29;20074;-66
2022/10/07 07:18:06;;;;;;;19.45;4.50;;;10.80;99.90;;;;;;4835932;29;20057;-67
2022/10/07 07:20:36;;;;;;;25.17;5.32;;;10.90;99.90;;;;;;4840902;29;20117;-67
2022/10/07 07:23:03;;;;;;;22.63;5.00;;;11.00;99.90;;;;;;4842187;29;20152;-68
2022/10/07 07:25:28;;;;;;;19.05;4.63;;;11.10;99.90;;;;;;4840669;29;20049;-66
2022/10/07 07:27:55;;;;;;;27.30;6.18;;;11.10;99.90;;;;;;4841330;29;20050;-67
2022/10/07 07:30:22;;;;;;;18.65;5.50;;;11.30;99.90;;;;;;4822744;29;20061;-66
2022/10/07 07:32:49;;;;;;;22.90;5.20;;;11.50;99.90;;;;;;4839950;29;20166;-66
2022/10/07 07:35:15;;;;;;;11.13;4.57;;;11.50;99.90;;;;;;4837226;29;20046;-66
2022/10/07 07:37:40;;;;;;;21.52;4.72;;;11.60;99.90;;;;;;4839399;29;20061;-65
2022/10/07 07:40:07;;;;;;;23.35;5.78;;;11.70;99.90;;;;;;4835724;29;20087;-66
2022/10/07 07:42:33;;;;;;;23.20;5.13;;;11.70;99.90;;;;;;4840535;29;20125;-66
2022/10/07 07:44:59;;;;;;;22.30;4.95;;;11.80;99.90;;;;;;4840779;29;20069;-66
2022/10/07 07:47:25;;;;;;;20.83;4.70;;;11.90;99.90;;;;;;4839916;29;20042;-65
2022/10/07 07:49:51;;;;;;;22.60;4.60;;;12.00;99.90;;;;;;4839426;29;20062;-67
2022/10/07 07:52:17;;;;;;;17.63;5.10;;;12.10;99.90;;;;;;4837834;29;20397;-66
2022/10/07 07:54:42;;;;;;;22.20;4.13;;;12.20;99.90;;;;;;4835516;29;20057;-66
2022/10/07 07:57:09;;;;;;;20.30;4.65;;;12.30;99.90;;;;;;4840445;29;20137;-66
2022/10/07 07:59:36;;;;;;;18.73;4.50;;;12.50;99.90;;;;;;4820629;29;20413;-66
2022/10/07 08:02:02;;;;;;;30.65;5.68;;;12.60;99.90;;;;;;4832185;29;20041;-67
2022/10/07 08:04:28;;;;;;;22.48;4.63;;;12.70;99.90;;;;;;4833673;29;21426;-67
2022/10/07 08:06:54;;;;;;;19.00;4.43;;;12.80;99.90;;;;;;4835536;29;20049;-67
2022/10/07 08:09:20;;;;;;;21.02;4.60;;;12.90;99.90;;;;;;4834853;29;20050;-67
2022/10/07 08:11:46;;;;;;;18.70;4.82;;;13.00;99.90;;;;;;4839437;29;20042;-67
2022/10/07 08:14:14;;;;;;;16.25;4.55;;;13.20;99.90;;;;;;4837202;29;20559;-67
2022/10/07 08:16:39;;;;;;;18.73;4.90;;;13.20;99.90;;;;;;4833904;29;20077;-67
2022/10/07 08:19:05;;;;;;;14.15;4.00;;;13.30;99.90;;;;;;4833991;29;20046;-68
2022/10/07 08:21:34;;;;;;;18.30;3.88;;;13.30;99.90;;;;;;4815589;29;20200;-66
2022/10/07 08:24:01;;;;;;;16.73;4.45;;;13.40;99.90;;;;;;4832866;29;20064;-66
2022/10/07 08:26:29;;;;;;;25.80;4.78;;;13.60;99.90;;;;;;4833736;29;20050;-67
2022/10/07 08:28:59;;;;;;;16.67;3.88;;;13.60;99.90;;;;;;4833838;29;20110;-68
2022/10/07 08:31:26;;;;;;;18.92;4.65;;;13.60;99.90;;;;;;4839310;29;20671;-67
2022/10/07 08:33:54;;;;;;;20.55;3.88;;;13.70;99.90;;;;;;4840450;29;20042;-67
2022/10/07 08:36:21;;;;;;;17.08;4.13;;;13.90;99.90;;;;;;4840348;29;20058;-68
2022/10/07 08:38:55;;;;;;;18.08;4.05;;;14.00;99.90;;;;;;4823140;29;20493;-67
2022/10/07 08:41:30;;;;;;;16.80;3.75;;;14.20;99.90;;;;;;4821455;29;20050;-68
2022/10/07 08:43:57;;;;;;;24.58;3.95;;;14.30;99.90;;;;;;4830705;29;20357;-67
2022/10/07 08:46:36;;;;;;;14.57;3.75;;;14.50;99.90;;;;;;4824094;29;20057;-68
2022/10/07 08:49:11;;;;;;;14.63;3.72;;;14.60;99.90;;;;;;4837608;29;20510;-67
2022/10/07 08:51:47;;;;;;;20.08;4.03;;;14.80;99.90;;;;;;4823878;29;20497;-68
2022/10/07 08:54:14;;;;;;;21.38;4.20;;;14.80;99.90;;;;;;4812699;29;20069;-69
2022/10/07 08:56:43;;;;;;;15.35;3.95;;;14.90;99.90;;;;;;4840287;29;20089;-68
2022/10/07 08:59:20;;;;;;;22.48;3.75;;;15.00;99.90;;;;;;4840535;29;20046;-67
2022/10/07 09:02:07;;;;;;;25.83;4.20;;;15.10;99.90;;;;;;4823488;29;20124;-67
2022/10/07 09:05:14;;;;;;;16.88;3.70;;;15.20;99.90;;;;;;4837960;29;20053;-67
2022/10/07 09:07:46;;;;;;;15.70;4.13;;;15.40;99.90;;;;;;4831625;29;20125;-67
2022/10/07 09:10:24;;;;;;;18.38;3.90;;;15.50;99.90;;;;;;4836363;29;20125;-67
2022/10/07 09:12:58;;;;;;;18.13;4.22;;;15.70;99.90;;;;;;4839475;29;20106;-68
2022/10/07 09:15:55;;;;;;;18.35;4.03;;;15.70;99.90;;;;;;4836913;29;20122;-66
2022/10/07 09:18:35;;;;;;;14.23;3.90;;;15.90;99.90;;;;;;4818677;29;20476;-68
2022/10/07 09:21:05;;;;;;;24.08;4.10;;;16.00;99.90;;;;;;4838939;29;20042;-68
2022/10/07 09:23:32;;;;;;;18.83;3.80;;;16.00;99.90;;;;;;4839511;29;20053;-67
2022/10/07 09:25:58;;;;;;;18.92;3.67;;;16.10;99.90;;;;;;4821579;29;20138;-67
2022/10/07 09:28:30;;;;;;;20.00;4.10;;;16.20;99.90;;;;;;4837309;29;20064;-68
2022/10/07 09:30:58;;;;;;;14.27;3.28;;;16.40;99.90;;;;;;4838691;29;20061;-67
2022/10/07 09:33:24;;;;;;;20.52;3.78;;;16.60;99.90;;;;;;4821812;29;20054;-66
2022/10/07 09:35:53;;;;;;;16.58;3.58;;;16.80;99.90;;;;;;4839538;29;20071;-66
2022/10/07 09:38:49;;;;;;;15.75;3.40;;;17.00;99.90;;;;;;4837799;29;20038;-66
2022/10/07 09:41:30;;;;;;;18.35;3.85;;;17.10;99.90;;;;;;4826577;29;20068;-66
2022/10/07 09:44:14;;;;;;;19.73;3.85;;;17.20;99.90;;;;;;4839400;29;20049;-66
2022/10/07 09:46:47;;;;;;;15.82;3.90;;;17.40;99.90;;;;;;4835248;29;20050;-67
2022/10/07 09:49:28;;;;;;;19.08;4.60;;;17.60;99.90;;;;;;4835694;29;20046;-66
2022/10/07 09:52:13;;;;;;;15.23;3.30;;;17.90;99.90;;;;;;4828589;29;20172;-66
2022/10/07 09:54:39;;;;;;;13.85;3.83;;;17.90;99.90;;;;;;4831465;29;20089;-67
2022/10/07 09:57:05;;;;;;;17.45;3.58;;;18.00;99.90;;;;;;4838222;29;20042;-67
2022/10/07 09:59:35;;;;;;;14.73;3.53;;;18.20;99.90;;;;;;4843170;29;20049;-67
2022/10/07 10:02:13;;;;;;;19.90;4.13;;;18.30;99.90;;;;;;4825659;29;20453;-66
2022/10/07 10:04:46;;;;;;;15.98;3.55;;;18.00;99.90;;;;;;4829822;29;20054;-69
2022/10/07 10:07:26;;;;;;;16.88;3.63;;;18.00;99.90;;;;;;4834402;29;20057;-68
2022/10/07 10:09:54;;;;;;;22.92;4.10;;;18.20;99.90;;;;;;4836642;29;20530;-69
2022/10/07 10:12:22;;;;;;;15.95;3.83;;;18.40;99.90;;;;;;4840475;29;20042;-68
2022/10/07 10:14:51;;;;;;;16.65;4.13;;;18.60;99.90;;;;;;4839997;29;20052;-68
2022/10/07 10:17:30;;;;;;;12.55;3.22;;;18.90;99.90;;;;;;4833721;29;20186;-69
2022/10/07 10:20:23;;;;;;;13.05;3.28;;;19.10;99.90;;;;;;4837313;29;20034;-70
2022/10/07 10:22:50;;;;;;;22.00;3.83;;;19.20;99.90;;;;;;4836695;29;20113;-70
2022/10/07 10:28:33;;;;;;;20.25;3.90;;;18.90;99.90;;;;;;4839746;29;20066;-69
2022/10/07 10:31:08;;;;;;;12.98;3.25;;;18.70;99.90;;;;;;4837415;29;20038;-69
2022/10/07 10:33:42;;;;;;;16.38;4.10;;;19.00;99.90;;;;;;4839454;29;20054;-69
2022/10/07 10:36:19;;;;;;;18.15;3.22;;;19.40;99.90;;;;;;4840857;29;20412;-70
2022/10/07 10:38:49;;;;;;;17.20;3.50;;;20.00;99.90;;;;;;4840935;29;20114;-69
2022/10/07 10:41:22;;;;;;;15.15;3.78;;;20.50;99.90;;;;;;4835239;29;20315;-68
2022/10/07 10:43:58;;;;;;;15.63;3.70;;;20.90;99.90;;;;;;4826720;29;20110;-68
2022/10/07 10:46:31;;;;;;;14.45;3.03;;;21.20;99.90;;;;;;4841766;29;20046;-68
2022/10/07 10:49:15;;;;;;;16.08;3.47;;;21.40;99.90;;;;;;4839748;29;20077;-68
2022/10/07 10:51:58;;;;;;;16.60;3.35;;;21.30;99.90;;;;;;4840115;29;20050;-67
2022/10/07 10:55:32;;;;;;;14.05;3.70;;;21.30;99.90;;;;;;4841357;29;20492;-69
2022/10/07 10:58:30;;;;;;;21.33;3.58;;;21.40;98.70;;;;;;4753289;30;20123;-69
2022/10/07 11:01:27;;;;;;;14.38;3.33;;;21.40;98.40;;;;;;4767031;30;20059;-68
2022/10/07 11:04:26;;;;;;;22.08;3.83;;;21.50;98.60;;;;;;4822967;29;20522;-70
2022/10/07 11:07:00;;;;;;;12.32;3.13;;;21.60;98.00;;;;;;4838167;29;20046;-68
2022/10/07 11:09:49;;;;;;;11.90;2.92;;;21.60;98.00;;;;;;4841580;29;20073;-68
2022/10/07 11:12:30;;;;;;;18.38;3.17;;;21.80;98.70;;;;;;4839675;29;20045;-68
2022/10/07 11:15:33;;;;;;;19.08;3.70;;;22.10;98.20;;;;;;4838778;29;20050;-69
2022/10/07 11:18:05;;;;;;;14.18;3.13;;;22.40;97.40;;;;;;4817205;29;20470;-68
2022/10/07 11:20:47;;;;;;;14.40;3.00;;;22.70;97.40;;;;;;4839877;29;20476;-68
2022/10/07 11:23:50;;;;;;;15.65;3.17;;;22.90;96.70;;;;;;4839861;29;20046;-69
2022/10/07 11:26:28;;;;;;;11.52;3.08;;;22.70;95.00;;;;;;4839122;29;20053;-68
2022/10/07 11:28:55;;;;;;;;;;;22.40;95.90;;;;;;4837427;29;20508;-68
2022/10/07 11:31:31;;;;;;;17.15;3.15;;;22.00;96.70;;;;;;4839170;29;19924;-67
2022/10/07 11:34:20;;;;;;;15.52;3.13;;;22.20;96.90;;;;;;4828017;29;20070;-68
2022/10/07 11:37:10;;;;;;;17.73;3.22;;;22.40;96.50;;;;;;4837067;29;20393;-70
2022/10/07 11:39:37;;;;;;;14.57;3.90;;;22.70;96.10;;;;;;4834916;29;20121;-68
2022/10/07 11:42:06;;;;;;;;;;;22.90;95.80;;;;;;4839036;29;20118;-67
2022/10/07 11:44:40;;;;;;;18.23;3.95;;;23.00;94.40;;;;;;4839642;29;19925;-69
2022/10/07 11:47:11;;;;;;;13.85;3.30;;;22.90;95.10;;;;;;4814407;29;20054;-67
2022/10/07 11:50:01;;;;;;;14.38;2.70;;;22.60;94.90;;;;;;4827152;29;20046;-69
2022/10/07 11:52:31;;;;;;;15.60;3.60;;;22.00;94.50;;;;;;4829767;29;20091;-68
2022/10/07 11:55:08;;;;;;;16.08;3.20;;;21.70;96.10;;;;;;4837892;29;20050;-68
2022/10/07 11:57:37;;;;;;;11.18;3.05;;;21.20;96.00;;;;;;4840763;29;20049;-67
2022/10/07 12:00:26;;;;;;;18.80;3.97;;;20.70;96.40;;;;;;4839730;29;20508;-69
2022/10/07 12:03:06;;;;;;;14.23;3.20;;;20.20;97.40;;;;;;4837512;29;20085;-67
2022/10/07 12:05:35;;;;;;;20.80;3.08;;;19.90;98.00;;;;;;4839294;29;20066;-68
2022/10/07 12:08:22;;;;;;;12.90;2.80;;;19.70;98.50;;;;;;4841166;29;20389;-67
2022/10/07 12:10:54;;;;;;;14.07;2.95;;;19.50;99.10;;;;;;4823774;29;20046;-69
2022/10/07 12:13:20;;;;;;;15.32;3.42;;;19.40;99.30;;;;;;4838889;29;20045;-66
2022/10/07 12:15:47;;;;;;;10.65;3.13;;;19.20;99.50;;;;;;4836911;29;20056;-67
2022/10/07 12:18:16;;;;;;;15.10;3.10;;;19.10;99.70;;;;;;4841507;29;20057;-67
2022/10/07 12:20:51;;;;;;;10.80;2.75;;;19.00;99.90;;;;;;4837067;29;20076;-69
2022/10/07 12:23:17;;;;;;;10.45;2.80;;;19.00;99.90;;;;;;4840623;29;20053;-67
2022/10/07 12:25:50;;;;;;;14.30;3.08;;;19.00;99.90;;;;;;4840276;29;20045;-67
2022/10/07 12:28:36;;;;;;;14.02;3.20;;;18.80;99.90;;;;;;4841449;29;20130;-67
2022/10/07 12:31:14;;;;;;;16.95;2.80;;;18.70;99.90;;;;;;4840978;29;20096;-68
2022/10/07 12:33:56;;;;;;;17.10;3.73;;;18.60;99.90;;;;;;4841864;29;20049;-70
2022/10/07 12:36:22;;;;;;;16.95;3.28;;;18.60;99.90;;;;;;4839291;29;20096;-67
2022/10/07 12:39:00;;;;;;;11.38;2.78;;;18.60;99.90;;;;;;4823764;29;20129;-68
2022/10/07 12:41:35;;;;;;;17.03;3.73;;;18.50;99.90;;;;;;4839217;29;20470;-68
2022/10/07 12:44:33;;;;;;;10.05;3.15;;;18.40;99.90;;;;;;4841344;29;20077;-68
2022/10/07 12:47:04;;;;;;;16.90;2.97;;;18.40;99.90;;;;;;4810887;29;20534;-68
2022/10/07 12:49:53;;;;;;;16.83;2.92;;;18.40;99.90;;;;;;4833887;29;20110;-68
2022/10/07 12:52:39;;;;;;;17.92;2.90;;;18.50;99.90;;;;;;4836560;29;20042;-68
2022/10/07 12:55:09;;;;;;;17.42;2.97;;;18.40;99.90;;;;;;4840586;29;20063;-70
2022/10/07 12:57:38;;;;;;;11.88;3.03;;;18.40;99.90;;;;;;4839869;29;20508;-69
2022/10/07 13:00:15;;;;;;;16.02;3.17;;;18.50;99.90;;;;;;4840841;29;20442;-69
2022/10/07 13:02:51;;;;;;;13.55;2.80;;;18.50;99.90;;;;;;4840351;29;20049;-70
2022/10/07 13:05:44;;;;;;;14.73;3.25;;;18.40;99.90;;;;;;4823705;29;20134;-68
2022/10/07 13:08:35;;;;;;;15.70;2.92;;;18.40;99.90;;;;;;4838836;29;20048;-68
2022/10/07 13:11:12;;;;;;;12.85;2.58;;;18.30;99.90;;;;;;4828356;29;20500;-67
2022/10/07 13:13:48;;;;;;;19.42;2.58;;;18.30;99.90;;;;;;4840965;29;20046;-67
2022/10/07 13:16:20;;;;;;;17.35;3.75;;;18.20;99.90;;;;;;4840298;29;20054;-69
2022/10/07 13:18:51;;;;;;;13.30;2.85;;;18.20;99.90;;;;;;4839777;29;20084;-67
2022/10/07 13:21:24;;;;;;;14.00;3.35;;;18.10;99.90;;;;;;4841144;29;20122;-69
2022/10/07 13:23:54;;;;;;;12.50;3.33;;;18.10;99.90;;;;;;4839741;29;20098;-68
2022/10/07 13:26:22;;;;;;;16.38;2.97;;;18.10;99.90;;;;;;4835527;29;20042;-67
2022/10/07 13:28:59;;;;;;;14.90;2.97;;;18.10;99.90;;;;;;4840397;29;20104;-68
2022/10/07 13:31:27;;;;;;;13.13;3.00;;;18.10;99.90;;;;;;4841241;29;20042;-67
2022/10/07 13:33:55;;;;;;;13.35;3.17;;;18.10;99.90;;;;;;4845128;29;20049;-68
2022/10/07 13:36:24;;;;;;;9.23;2.40;;;18.10;99.90;;;;;;4844095;29;20034;-68
2022/10/07 13:39:12;;;;;;;16.27;3.30;;;18.10;99.90;;;;;;4841462;29;20412;-69
2022/10/07 13:41:41;;;;;;;13.27;2.90;;;18.00;99.90;;;;;;4838524;29;20518;-69
2022/10/07 13:44:11;;;;;;;12.45;2.72;;;17.90;99.90;;;;;;4834238;29;20054;-68
2022/10/07 13:46:37;;;;;;;14.00;2.75;;;17.90;99.90;;;;;;4842219;29;20056;-69
2022/10/07 13:49:03;;;;;;;9.90;2.70;;;17.80;99.90;;;;;;4843495;29;20136;-71
2022/10/07 13:51:39;;;;;;;12.02;2.53;;;17.80;99.90;;;;;;4843308;29;20050;-69
2022/10/07 13:54:15;;;;;;;12.55;3.20;;;17.80;99.90;;;;;;4837863;29;20568;-67
2022/10/07 13:56:42;;;;;;;17.30;3.70;;;17.80;99.90;;;;;;4842585;29;20049;-69
2022/10/07 13:59:16;;;;;;;9.65;2.85;;;17.70;99.90;;;;;;4843201;29;20303;-70
2022/10/07 14:01:44;;;;;;;16.52;3.17;;;17.70;99.90;;;;;;4843597;29;20129;-70
2022/10/07 14:04:15;;;;;;;11.38;3.20;;;17.60;99.90;;;;;;4844072;29;20113;-68